Terminal Aerodrome Forecast
Issued by NWS

Home | Current Version | Previous Version | Text Only | Print | Product List | Glossary On
Versions: 1 2 3 4 5 6 7 8 9 10 11 12 13 14 15 16 17 18 19 20 21
000
FTUS41 KPBZ 111140
TAFHLG
TAF
KHLG 111140Z 1112/1212 13005KT 3SM -SN OVC050
     FM111500 15006KT P6SM OVC050
     FM120100 14007KT 5SM -RASN OVC035
     FM120500 18008KT 2SM -RA OVC015
     FM121000 22010KT 3SM -RASN OVC015=

USA.gov is the U.S. government's official web portal to all federal, state and local government web resources and services.